Latest Weather Observations for Oodnadatta

IDS60801

Issued at 5:31 pm CST Tuesday 30 June 2015 (issued every 30 minutes, with the page automatically refreshed every 10 minutes)

About weather observations | Map of weather stations | Latest weather observations for SA | Other Formats
Station Details ID: 017043 Name: OODNADATTA AIRPORT Lat: -27.56 Lon: 135.45 Height: 116.5 m
Data from the previous 72 hours. | See also: Recent months at Oodnadatta
Date/Time
CST
Temp
°C
App
Temp
°C
Dew
Point
Rel
Hum
%
Delta-T
°C
Wind Press
QNH
hPa
Press
MSL
hPa
Rain
since 9 am
mm
Dir
 
Spd
km/h
Gust
km/h
Spd
kts
Gust
kts
30/05:30pm 17.9 14.2 6.4 47 5.7 SE 15 20 8 11 1027.2 - 0.0
30/05:00pm 18.3 14.0 6.8 47 5.7 SSE 19 26 10 14 1026.9 - 0.0
30/04:30pm 18.6 14.6 6.8 46 5.9 SSE 17 22 9 12 1026.8 - 0.0
30/04:00pm 18.6 14.1 6.8 46 5.9 SSE 20 28 11 15 1026.6 - 0.0
30/03:30pm 18.8 14.7 7.9 49 5.6 SE 19 28 10 15 1026.5 - 0.0
30/03:00pm 18.4 15.0 7.8 50 5.4 ESE 15 24 8 13 1026.8 1026.9 0.0
30/02:30pm 17.7 14.4 8.0 53 5.0 SE 15 22 8 12 1027.1 - 0.0
30/02:00pm 17.7 14.5 8.6 55 4.7 E 15 24 8 13 1027.4 - 0.0
30/01:30pm 16.9 13.8 8.8 59 4.2 SE 15 24 8 13 1028.1 - 0.0
30/01:00pm 16.5 13.4 8.7 60 4.0 SE 15 24 8 13 1028.4 - 0.0
30/12:30pm 15.5 12.3 8.5 63 3.6 SE 15 20 8 11 1029.0 - 0.0
30/11:30am 13.3 10.7 9.4 77 2.0 SSE 13 20 7 11 1030.0 - 0.0
30/11:00am 12.8 10.6 9.4 80 1.7 SSE 11 15 6 8 1030.4 - 0.0
30/10:30am 11.9 9.3 9.3 84 1.3 SSE 13 20 7 11 1030.5 - 0.0
30/10:00am 11.1 8.9 9.5 90 0.8 SE 11 17 6 9 1030.5 - 0.0
30/09:30am 10.3 8.5 9.4 94 0.4 SE 9 15 5 8 1030.4 - 0.0
30/09:00am 9.1 8.0 8.3 95 0.4 SSE 4 7 2 4 1030.0 1030.0 0.0
30/08:30am 8.2 7.7 7.9 98 0.1 CALM 0 0 0 0 1029.8 - 0.0
30/08:00am 7.6 7.0 7.5 99 0.0 CALM 0 0 0 0 1029.5 - 0.0
30/07:30am 7.3 6.7 7.2 99 0.0 CALM 0 0 0 0 1029.1 - 0.0
30/07:00am 7.3 5.5 7.0 98 0.1 SSE 6 7 3 4 1028.4 - 0.0
30/06:30am 7.6 5.3 7.5 99 0.0 SSE 9 9 5 5 1028.1 - 0.0
30/06:00am 8.1 5.5 7.8 98 0.1 SSE 11 13 6 7 1027.9 1028.0 0.0
30/05:30am 8.9 7.2 8.3 96 0.3 SSE 7 9 4 5 1027.7 - 0.0
30/05:00am 9.3 7.7 8.7 96 0.3 SSE 7 11 4 6 1027.5 - 0.0
30/04:30am 8.9 7.3 8.6 98 0.1 SSE 7 11 4 6 1027.5 - 0.0
30/04:00am 8.5 6.4 8.4 99 0.0 SSE 9 9 5 5 1027.5 - 0.0
30/03:30am 8.0 5.8 7.7 98 0.1 SSE 9 9 5 5 1027.6 - 0.0
30/03:00am 8.3 7.4 7.9 97 0.2 SSE 2 7 1 4 1027.5 1027.6 0.0
30/02:30am 8.7 8.3 8.3 97 0.2 CALM 0 0 0 0 1027.4 - 0.0
30/02:00am 9.0 7.3 8.4 96 0.3 SSE 7 9 4 5 1027.4 - 0.0
30/01:30am 9.5 7.5 8.7 95 0.4 SSE 9 9 5 5 1027.7 - 0.0
30/01:00am 10.3 8.1 9.5 95 0.4 SSE 11 13 6 7 1027.9 - 0.0
30/12:30am 10.9 9.2 10.0 94 0.5 SE 9 13 5 7 1027.9 - 0.0
30/12:00am 11.1 8.0 10.2 94 0.5 ESE 17 20 9 11 1028.0 1028.1 0.0
 
Date/Time
CST
Temp
°C
App
Temp
°C
Dew
Point
Rel
Hum
%
Delta-T
°C
Wind Press
QNH
hPa
Press
MSL
hPa
Rain
since 9 am
mm
Dir
 
Spd
km/h
Gust
km/h
Spd
kts
Gust
kts
29/11:30pm 11.2 8.5 10.3 94 0.5 SE 15 17 8 9 1028.2 - 0.0
29/11:00pm 11.6 9.0 10.7 94 0.5 ESE 15 19 8 10 1028.3 - 0.0
29/10:30pm 11.9 8.6 10.8 93 0.6 ESE 19 22 10 12 1028.2 - 0.0
29/10:00pm 12.3 8.1 11.0 92 0.7 E 24 30 13 16 1028.3 - 0.0
29/09:30pm 12.4 8.2 11.1 92 0.7 ESE 24 30 13 16 1028.2 - 0.0
29/09:00pm 12.4 9.0 11.1 92 0.7 SE 20 28 11 15 1027.9 1028.0 0.0
29/08:30pm 13.1 10.0 11.5 90 0.8 SE 19 24 10 13 1027.7 - 0.0
29/08:00pm 13.8 10.5 11.5 86 1.2 ESE 20 26 11 14 1027.5 - 0.0
29/07:30pm 14.2 11.4 11.2 82 1.6 ESE 17 19 9 10 1027.2 - 0.0
29/07:00pm 14.8 11.6 11.2 79 1.9 ESE 19 24 10 13 1026.9 - 0.0
29/06:30pm 15.4 12.0 11.4 77 2.2 SE 20 26 11 14 1026.6 - 0.0
29/06:00pm 16.1 12.4 11.5 74 2.5 SE 22 28 12 15 1026.3 1026.4 0.0
29/05:30pm 16.8 13.1 11.5 71 2.9 ESE 22 28 12 15 1025.9 - 0.0
29/05:00pm 17.7 13.9 11.3 66 3.5 SE 22 28 12 15 1025.7 - 0.0
29/04:30pm 18.0 14.2 11.1 64 3.8 SE 22 28 12 15 1025.4 - 0.0
29/04:00pm 18.8 15.0 11.1 61 4.2 SE 22 28 12 15 1025.2 - 0.0
29/03:30pm 18.6 14.7 10.7 60 4.3 SE 22 28 12 15 1025.0 - 0.0
29/03:00pm 18.9 15.5 10.7 59 4.4 ESE 19 24 10 13 1025.2 1025.3 0.0
29/02:30pm 19.0 15.9 10.3 57 4.7 SE 17 24 9 13 1025.2 - 0.0
29/02:00pm 18.4 16.0 10.0 58 4.5 SE 13 20 7 11 1025.7 - 0.0
29/01:30pm 18.0 15.1 9.6 58 4.4 SE 15 20 8 11 1026.2 - 0.0
29/01:00pm 17.6 14.7 9.8 60 4.1 ESE 15 19 8 10 1026.7 - 0.0
29/12:30pm 17.2 14.2 9.1 59 4.2 SE 15 20 8 11 1027.3 - 0.0
29/12:00pm 17.6 14.5 8.7 56 4.6 ESE 15 22 8 12 1027.8 1027.9 0.0
29/11:30am 16.6 13.7 8.1 57 4.3 ESE 13 20 7 11 1028.3 - 0.0
29/11:00am 16.1 12.3 7.6 57 4.3 ESE 17 20 9 11 1028.6 - 0.0
29/10:30am 15.1 10.3 7.4 60 3.8 ESE 22 30 12 16 1028.7 - 0.0
29/10:00am 13.9 9.4 6.3 60 3.7 SE 19 24 10 13 1028.4 - 0.0
29/09:30am 12.3 7.8 5.9 65 3.0 SE 19 22 10 12 1028.7 - 0.0
29/09:00am 11.5 8.1 5.8 68 2.6 S 13 15 7 8 1028.9 1028.9 0.0
29/08:30am 10.8 7.4 5.8 71 2.3 S 13 15 7 8 1028.9 - 0.0
29/08:00am 9.5 6.4 5.7 77 1.7 S 11 13 6 7 1028.5 - 0.0
29/07:30am 8.7 5.2 5.4 80 1.5 S 13 15 7 8 1028.1 - 0.0
29/07:00am 9.2 6.1 5.6 78 1.6 SSE 11 13 6 7 1028.0 - 0.0
29/06:30am 8.9 5.0 5.5 79 1.5 SE 15 17 8 9 1027.5 - 0.0
29/06:00am 9.0 5.5 5.6 79 1.5 SSE 13 15 7 8 1027.4 1027.5 0.0
29/05:30am 9.6 6.9 5.8 77 1.8 SSE 9 13 5 7 1027.4 - 0.0
29/05:00am 10.0 6.3 6.3 78 1.7 SE 15 19 8 10 1027.1 - 0.0
29/04:30am 10.2 6.5 6.5 78 1.7 ESE 15 19 8 10 1027.0 - 0.0
29/04:00am 9.8 6.5 6.3 79 1.6 ESE 13 15 7 8 1027.2 - 0.0
29/03:30am 10.1 6.8 6.3 77 1.8 ESE 13 15 7 8 1027.4 - 0.0
29/03:00am 10.7 7.8 6.5 75 2.0 ESE 11 15 6 8 1027.7 1027.8 0.0
29/02:30am 11.3 8.0 6.6 73 2.2 ESE 13 17 7 9 1027.9 - 0.0
29/02:00am 11.5 8.6 6.4 71 2.4 SE 11 15 6 8 1028.2 - 0.0
29/01:30am 11.9 7.8 6.4 69 2.6 SSE 17 20 9 11 1028.2 - 0.0
29/01:00am 12.5 8.2 6.8 68 2.7 SE 19 22 10 12 1028.3 - 0.0
29/12:30am 12.9 8.3 6.7 66 3.0 SE 20 24 11 13 1028.6 - 0.0
29/12:00am 13.5 8.6 7.1 65 3.1 SE 22 28 12 15 1028.9 1028.9 0.0
 
Date/Time
CST
Temp
°C
App
Temp
°C
Dew
Point
Rel
Hum
%
Delta-T
°C
Wind Press
QNH
hPa
Press
MSL
hPa
Rain
since 9 am
mm
Dir
 
Spd
km/h
Gust
km/h
Spd
kts
Gust
kts
28/11:30pm 14.1 9.0 7.6 65 3.2 SE 24 28 13 15 1029.1 - 0.0
28/11:00pm 13.2 10.0 8.3 72 2.4 SE 15 19 8 10 1029.3 - 0.0
28/10:30pm 12.3 9.8 8.2 76 2.0 SSE 11 13 6 7 1029.3 - 0.0
28/10:00pm 12.6 9.7 8.3 75 2.1 SE 13 15 7 8 1029.2 - 0.0
28/09:30pm 12.6 9.3 8.1 74 2.2 SE 15 17 8 9 1029.2 - 0.0
28/09:00pm 13.2 10.3 8.3 72 2.4 SE 13 17 7 9 1029.1 1029.1 0.0
28/08:30pm 13.5 11.0 8.1 70 2.7 SE 11 13 6 7 1029.0 - 0.0
28/08:00pm 14.1 11.6 8.3 68 2.9 SSE 11 13 6 7 1028.5 - 0.0
28/07:30pm 15.0 11.8 8.3 64 3.4 SE 15 15 8 8 1028.3 - 0.0
28/07:00pm 16.0 12.9 8.7 62 3.7 SE 15 17 8 9 1028.0 - 0.0
28/06:30pm 16.7 13.2 8.7 59 4.1 SE 17 19 9 10 1027.6 - 0.0
28/06:00pm 17.4 13.6 9.1 58 4.3 SE 19 22 10 12 1027.2 1027.3 0.0
28/05:30pm 18.3 13.9 8.8 54 5.0 SE 22 28 12 15 1026.8 - 0.0
28/05:00pm 19.1 14.6 8.4 50 5.6 SE 22 28 12 15 1026.8 - 0.0
28/04:30pm 19.6 14.7 8.6 49 5.8 ESE 24 30 13 16 1026.6 - 0.0
28/04:00pm 20.4 16.4 9.0 48 6.1 SE 20 28 11 15 1026.7 - 0.0
28/03:30pm 20.4 16.2 8.1 45 6.4 SSE 20 26 11 14 1026.7 - 0.0
28/03:00pm 19.9 16.4 8.6 48 5.9 ESE 17 22 9 12 1026.8 1026.9 0.0
28/02:30pm 20.0 16.3 9.3 50 5.7 SSE 19 26 10 14 1027.0 - 0.0
28/02:00pm 20.3 16.0 9.5 50 5.8 ESE 22 28 12 15 1027.4 - 0.0
28/01:30pm 20.1 15.8 9.4 50 5.7 SE 22 28 12 15 1027.8 - 0.0
28/01:00pm 19.7 15.4 9.3 51 5.5 ESE 22 26 12 14 1028.4 - 0.0
28/12:30pm 19.5 15.6 9.4 52 5.4 ESE 20 26 11 14 1029.0 - 0.0
28/12:00pm 18.8 15.0 9.0 53 5.1 ESE 19 24 10 13 1029.5 1029.5 0.0
28/11:30am 17.8 13.8 8.4 54 4.9 ESE 19 26 10 14 1030.0 - 0.0
28/11:00am 16.6 13.2 7.8 56 4.5 E 15 19 8 10 1030.2 - 0.0
28/10:30am 15.2 12.4 7.0 58 4.0 ESE 11 15 6 8 1030.6 - 0.0
28/10:00am 14.1 10.1 6.7 61 3.6 E 17 22 9 12 1030.9 - 0.0
28/09:30am 13.1 8.6 6.2 63 3.3 ESE 19 22 10 12 1030.7 - 0.0
28/09:00am 12.0 7.8 5.6 65 3.0 ESE 17 20 9 11 1030.6 1030.6 0.0
28/08:30am 10.6 7.0 4.9 68 2.6 ESE 13 17 7 9 1030.6 - 0.0
28/08:00am 8.9 5.2 4.7 75 1.9 ESE 13 17 7 9 1030.4 - 0.0
28/07:30am 7.4 4.8 4.2 80 1.4 SSE 7 11 4 6 1030.2 - 0.0
28/07:00am 7.3 3.9 4.1 80 1.4 SE 11 13 6 7 1029.9 - 0.0
28/06:30am 7.7 4.0 4.3 79 1.5 SSE 13 15 7 8 1029.7 - 0.0
28/06:00am 7.9 4.1 4.1 77 1.6 SE 13 15 7 8 1029.7 1029.7 0.0
28/05:30am 8.7 4.6 4.3 74 1.9 SE 15 17 8 9 1029.4 - 0.0
28/05:00am 9.1 5.4 4.3 72 2.1 SSE 13 15 7 8 1029.5 - 0.0
28/04:30am 9.7 6.8 4.5 70 2.3 SSE 9 13 5 7 1029.6 - 0.0
28/04:00am 10.4 6.4 4.8 68 2.5 SE 15 19 8 10 1029.8 - 0.0
28/03:30am 10.3 5.9 4.7 68 2.5 SE 17 22 9 12 1029.8 - 0.0
28/03:00am 10.3 6.3 4.9 69 2.4 SE 15 19 8 10 1030.0 1030.0 0.0
28/02:30am 9.3 6.1 4.9 74 2.0 SSE 11 13 6 7 1030.1 - 0.0
28/02:00am 8.8 5.6 5.2 78 1.6 SSE 11 15 6 8 1030.3 - 0.0
28/01:30am 9.1 6.0 5.7 79 1.6 S 11 13 6 7 1030.3 - 0.0
28/01:00am 8.3 5.9 5.2 81 1.4 SSE 7 9 4 5 1030.4 - 0.0
28/12:30am 8.6 5.5 5.4 80 1.4 SSE 11 13 6 7 1030.3 - 0.0
28/12:00am 9.1 6.8 5.5 78 1.6 SSE 7 9 4 5 1030.2 1030.2 0.0
 
Date/Time
CST
Temp
°C
App
Temp
°C
Dew
Point
Rel
Hum
%
Delta-T
°C
Wind Press
QNH
hPa
Press
MSL
hPa
Rain
since 9 am
mm
Dir
 
Spd
km/h
Gust
km/h
Spd
kts
Gust
kts
27/11:30pm 9.6 6.6 5.8 77 1.8 SSE 11 13 6 7 1030.3 - 0.0
27/11:00pm 9.7 7.0 5.7 76 1.8 SSE 9 11 5 6 1030.2 - 0.0
27/10:30pm 10.1 7.5 5.9 75 1.9 SSE 9 13 5 7 1030.2 - 0.0
27/10:00pm 10.7 7.3 6.1 73 2.2 E 13 15 7 8 1030.1 - 0.0
27/09:30pm 11.1 7.3 5.8 70 2.5 ESE 15 17 8 9 1029.9 - 0.0
27/09:00pm 12.0 8.3 6.1 67 2.8 ESE 15 19 8 10 1030.0 1030.0 0.0
27/08:30pm 12.0 8.2 5.9 66 2.9 SE 15 17 8 9 1029.7 - 0.0
27/08:00pm 12.8 9.0 5.9 63 3.3 SE 15 17 8 9 1029.5 - 0.0
27/07:30pm 13.6 9.4 5.7 59 3.7 SE 17 20 9 11 1029.3 - 0.0
27/07:00pm 14.1 10.0 6.0 58 3.9 SSE 17 17 9 9 1029.1 - 0.0
27/06:30pm 14.5 10.7 5.8 56 4.2 SE 15 19 8 10 1028.7 - 0.0
27/06:00pm 15.6 11.5 6.1 53 4.6 SE 17 20 9 11 1028.5 1028.6 0.0

Other Formats:

Comma delimited format used in spreadsheet applications
http://www.bom.gov.au/fwo/IDS60801/IDS60801.94476.axf

JavaScript Object Notation format (JSON) in row-major order
http://www.bom.gov.au/fwo/IDS60801/IDS60801.94476.json